Time;durP1;ratioP1;P1;durP2;ratioP2;P2;SDS_P1;SDS_P2;PMS_P1;PMS_P2;Temp;Humidity;BMP_temperature;BMP_pressure;BME280_temperature;BME280_humidity;BME280_pressure;Samples;Min_cycle;Max_cycle;Signal;HPM_P1;HPM_P2
2024/03/22 00:00:55;;;;;;;12.90;4.10;;;8.90;99.90;;;;;;5111793;28;20188;-56
2024/03/22 00:03:21;;;;;;;4.93;3.83;;;8.90;99.90;;;;;;5111861;28;20204;-56
2024/03/22 00:05:47;;;;;;;6.57;3.22;;;8.80;99.90;;;;;;5113355;28;20282;-56
2024/03/22 00:08:13;;;;;;;2.70;2.50;;;8.90;99.90;;;;;;5097381;28;20192;-56
2024/03/22 00:10:39;;;;;;;4.23;2.20;;;9.00;99.90;;;;;;5115468;28;20822;-56
2024/03/22 00:13:04;;;;;;;4.10;2.23;;;8.90;99.90;;;;;;5115589;28;20175;-56
2024/03/22 00:15:30;;;;;;;2.90;2.30;;;8.90;99.90;;;;;;5115801;28;20173;-56
2024/03/22 00:17:55;;;;;;;2.73;2.53;;;8.90;99.90;;;;;;5115467;28;20249;-56
2024/03/22 00:20:21;;;;;;;1.87;1.77;;;8.90;99.90;;;;;;5115168;28;20196;-55
2024/03/22 00:22:46;;;;;;;2.33;2.13;;;8.90;99.90;;;;;;5115449;28;20562;-56
2024/03/22 00:25:12;;;;;;;2.83;2.30;;;8.90;99.90;;;;;;5115345;28;20781;-52
2024/03/22 00:27:38;;;;;;;3.20;2.60;;;8.80;99.90;;;;;;5115330;28;20174;-56
2024/03/22 00:30:04;;;;;;;8.03;2.70;;;8.80;99.90;;;;;;5114963;28;20475;-56
2024/03/22 00:32:30;;;;;;;2.97;2.78;;;8.70;99.90;;;;;;5096915;28;20232;-56
2024/03/22 00:34:56;;;;;;;2.77;2.57;;;8.50;99.90;;;;;;5115223;28;20223;-56
2024/03/22 00:37:21;;;;;;;3.00;2.70;;;8.40;99.90;;;;;;5115148;28;20641;-55
2024/03/22 00:39:47;;;;;;;2.30;2.13;;;8.50;99.90;;;;;;5114799;28;20265;-55
2024/03/22 00:42:13;;;;;;;2.47;2.17;;;8.40;99.90;;;;;;5114898;28;20445;-56
2024/03/22 00:44:38;;;;;;;2.60;2.50;;;8.40;99.90;;;;;;5115011;28;20160;-56
2024/03/22 00:47:05;;;;;;;3.00;2.80;;;8.40;99.90;;;;;;5115002;28;20258;-56
2024/03/22 00:49:31;;;;;;;3.40;2.47;;;8.40;99.90;;;;;;5114677;28;20172;-56
2024/03/22 00:51:57;;;;;;;2.97;2.53;;;8.40;99.90;;;;;;5114777;28;20604;-56
2024/03/22 00:54:23;;;;;;;2.38;2.20;;;8.40;99.90;;;;;;5114822;28;20171;-56
2024/03/22 00:56:49;;;;;;;3.63;2.70;;;8.50;99.90;;;;;;5115284;28;20164;-56
2024/03/22 00:59:14;;;;;;;3.40;2.63;;;8.50;99.90;;;;;;5114538;28;20164;-56
2024/03/22 01:01:40;;;;;;;2.27;2.07;;;8.50;99.90;;;;;;5114645;28;20188;-56
2024/03/22 01:04:05;;;;;;;2.50;2.30;;;8.40;99.90;;;;;;5114669;28;20200;-56
2024/03/22 01:06:31;;;;;;;3.53;2.60;;;8.30;99.90;;;;;;5114665;28;20214;-56
2024/03/22 01:08:57;;;;;;;3.30;2.57;;;8.30;99.90;;;;;;5114282;28;20218;-56
2024/03/22 01:11:22;;;;;;;2.77;2.57;;;8.40;99.90;;;;;;5114392;28;20184;-56
2024/03/22 01:13:48;;;;;;;4.07;2.40;;;8.30;99.90;;;;;;5114426;28;20176;-56
2024/03/22 01:16:13;;;;;;;4.03;3.67;;;8.30;99.90;;;;;;5114396;28;20180;-56
2024/03/22 01:18:39;;;;;;;4.43;2.97;;;8.30;99.90;;;;;;5114122;28;20171;-56
2024/03/22 01:21:05;;;;;;;2.50;2.40;;;8.30;99.90;;;;;;5096032;28;20195;-56
2024/03/22 01:23:31;;;;;;;2.90;2.45;;;8.40;99.90;;;;;;5114198;28;20199;-56
2024/03/22 01:25:57;;;;;;;3.13;2.93;;;8.40;99.90;;;;;;5114146;28;20247;-56
2024/03/22 01:28:23;;;;;;;2.38;2.13;;;8.50;99.90;;;;;;5114142;28;20243;-56
2024/03/22 01:30:48;;;;;;;2.67;2.47;;;8.40;99.90;;;;;;5114091;28;20287;-56
2024/03/22 01:33:14;;;;;;;2.47;2.27;;;8.30;99.90;;;;;;5114092;28;20207;-56
2024/03/22 01:35:39;;;;;;;3.50;3.13;;;8.30;99.90;;;;;;5114083;28;20251;-56
2024/03/22 01:38:05;;;;;;;2.73;2.53;;;8.30;99.90;;;;;;5113880;28;20415;-56
2024/03/22 01:40:31;;;;;;;2.27;2.00;;;8.20;99.90;;;;;;5113898;28;20728;-56
2024/03/22 01:42:57;;;;;;;2.55;2.20;;;8.20;99.90;;;;;;5113796;28;20236;-58
2024/03/22 01:45:24;;;;;;;2.80;2.33;;;8.20;99.90;;;;;;5095485;28;20217;-58
2024/03/22 01:47:51;;;;;;;2.72;2.53;;;8.10;99.90;;;;;;5113906;28;20401;-56
2024/03/22 01:50:17;;;;;;;3.05;2.80;;;8.10;99.90;;;;;;5113303;28;20196;-56
2024/03/22 01:52:43;;;;;;;2.90;2.65;;;8.20;99.90;;;;;;5113728;28;20750;-56
2024/03/22 01:55:09;;;;;;;3.93;2.40;;;8.10;99.90;;;;;;5113657;28;20195;-56
2024/03/22 01:57:36;;;;;;;4.83;2.87;;;8.00;99.90;;;;;;5113546;28;20501;-56
2024/03/22 02:00:01;;;;;;;2.08;1.98;;;8.00;99.90;;;;;;5113556;28;20676;-56
2024/03/22 02:02:27;;;;;;;2.00;1.90;;;8.10;99.90;;;;;;5113479;28;20237;-55
2024/03/22 02:04:52;;;;;;;6.57;3.57;;;8.10;99.90;;;;;;5113474;28;20172;-56
2024/03/22 02:07:18;;;;;;;2.90;2.20;;;8.20;99.90;;;;;;5113418;28;20704;-56
2024/03/22 02:09:44;;;;;;;2.30;2.10;;;8.10;99.90;;;;;;5112906;28;20270;-56
2024/03/22 02:12:10;;;;;;;3.40;2.85;;;8.20;99.90;;;;;;5113606;28;20701;-56
2024/03/22 02:14:36;;;;;;;2.83;2.40;;;8.10;99.90;;;;;;5113177;28;20180;-52
2024/03/22 02:17:02;;;;;;;3.43;2.57;;;7.90;99.90;;;;;;5113287;28;20416;-57
2024/03/22 02:19:27;;;;;;;3.30;2.60;;;8.00;99.90;;;;;;5113059;28;20174;-56
2024/03/22 02:21:53;;;;;;;3.80;2.20;;;7.90;99.90;;;;;;5113001;28;20239;-56
2024/03/22 02:24:19;;;;;;;2.10;1.80;;;7.80;99.90;;;;;;5094875;28;20187;-56
2024/03/22 02:26:44;;;;;;;3.20;2.47;;;7.90;99.90;;;;;;5113051;28;20210;-56
2024/03/22 02:29:10;;;;;;;5.03;2.73;;;8.00;99.90;;;;;;5112262;28;20680;-56
2024/03/22 02:31:35;;;;;;;2.10;2.00;;;8.00;99.90;;;;;;5112918;28;20187;-50
2024/03/22 02:34:01;;;;;;;2.83;2.20;;;8.00;99.90;;;;;;5112880;28;20171;-56
2024/03/22 02:36:28;;;;;;;2.77;2.47;;;8.00;99.90;;;;;;5112904;28;20244;-56
2024/03/22 02:38:54;;;;;;;5.22;2.50;;;7.90;99.90;;;;;;5112458;28;20218;-56
2024/03/22 02:41:21;;;;;;;3.33;2.80;;;7.70;99.90;;;;;;5112722;28;20703;-51
2024/03/22 02:43:48;;;;;;;3.22;2.45;;;7.60;99.90;;;;;;5112596;28;20731;-53
2024/03/22 02:46:14;;;;;;;4.47;2.85;;;7.70;99.90;;;;;;5112597;28;20182;-55
2024/03/22 02:48:39;;;;;;;3.83;2.20;;;7.70;99.90;;;;;;5112359;28;20539;-56
2024/03/22 02:51:05;;;;;;;3.30;2.10;;;7.70;99.90;;;;;;5094188;28;20210;-56
2024/03/22 02:53:31;;;;;;;2.63;2.37;;;7.60;99.90;;;;;;5112456;28;20179;-54
2024/03/22 02:56:00;;;;;;;3.23;2.80;;;7.70;99.90;;;;;;5112513;28;20664;-55
2024/03/22 02:58:25;;;;;;;4.00;2.60;;;7.70;99.90;;;;;;5112194;28;20167;-56
2024/03/22 03:00:51;;;;;;;4.03;2.90;;;7.70;99.90;;;;;;5112306;28;20195;-56
2024/03/22 03:03:17;;;;;;;2.00;1.87;;;7.70;99.90;;;;;;5112244;28;20192;-55
2024/03/22 03:05:43;;;;;;;4.10;2.70;;;7.70;99.90;;;;;;5112206;28;20175;-56
2024/03/22 03:08:09;;;;;;;2.42;2.22;;;7.60;99.90;;;;;;5112489;28;20560;-55
2024/03/22 03:10:35;;;;;;;2.13;1.97;;;7.50;99.90;;;;;;5093923;28;20199;-55
2024/03/22 03:13:01;;;;;;;2.60;2.10;;;7.60;99.90;;;;;;5112313;28;20176;-58
2024/03/22 03:15:27;;;;;;;2.03;1.93;;;7.70;99.90;;;;;;5112335;28;20175;-56
2024/03/22 03:17:52;;;;;;;3.10;2.80;;;7.80;99.90;;;;;;5112158;28;20527;-56
2024/03/22 03:20:18;;;;;;;3.00;2.30;;;7.80;99.90;;;;;;5111788;28;20196;-56
2024/03/22 03:22:44;;;;;;;3.43;3.13;;;7.80;99.90;;;;;;5112081;28;20255;-57
2024/03/22 03:25:09;;;;;;;4.70;3.00;;;7.80;99.90;;;;;;5112201;28;20172;-56
2024/03/22 03:27:35;;;;;;;3.20;2.83;;;7.80;99.90;;;;;;5112142;28;20168;-56
2024/03/22 03:30:01;;;;;;;4.97;2.60;;;7.90;99.90;;;;;;5111852;28;20194;-56
2024/03/22 03:32:27;;;;;;;2.37;2.20;;;8.00;99.90;;;;;;5112228;28;20168;-56
2024/03/22 03:34:53;;;;;;;4.25;2.50;;;8.10;99.90;;;;;;5112017;28;20856;-56
2024/03/22 03:37:19;;;;;;;4.17;2.77;;;8.20;99.90;;;;;;5111728;28;20187;-56
2024/03/22 03:39:44;;;;;;;2.83;2.53;;;8.20;99.90;;;;;;5110423;28;20199;-56
2024/03/22 03:42:10;;;;;;;2.47;2.27;;;8.30;99.90;;;;;;5097732;28;20638;-56
2024/03/22 03:44:36;;;;;;;4.07;2.80;;;8.30;99.90;;;;;;5116266;28;20660;-56
2024/03/22 03:47:02;;;;;;;3.20;2.90;;;8.30;99.90;;;;;;5116216;28;20175;-56
2024/03/22 03:49:27;;;;;;;3.72;3.30;;;8.30;99.90;;;;;;5095604;28;20180;-56
2024/03/22 03:51:53;;;;;;;2.83;2.23;;;8.30;99.90;;;;;;5095528;28;20747;-55
2024/03/22 03:54:19;;;;;;;2.73;2.50;;;8.30;99.90;;;;;;5095464;28;20237;-56
2024/03/22 03:56:44;;;;;;;2.60;2.30;;;8.30;99.90;;;;;;5077457;28;20190;-55
2024/03/22 03:59:10;;;;;;;2.93;2.73;;;8.30;99.90;;;;;;5077046;28;20652;-56
2024/03/22 04:01:36;;;;;;;5.47;3.00;;;8.30;99.90;;;;;;5095494;28;20283;-56
2024/03/22 04:04:03;;;;;;;2.43;2.20;;;8.20;99.90;;;;;;5095371;28;20207;-56
2024/03/22 04:06:28;;;;;;;3.42;2.75;;;8.20;99.90;;;;;;5077225;28;20460;-56
2024/03/22 04:08:54;;;;;;;2.67;2.47;;;8.30;99.90;;;;;;5095018;28;20173;-56
2024/03/22 04:11:20;;;;;;;4.27;2.37;;;8.40;99.90;;;;;;5095283;28;20187;-56
2024/03/22 04:13:45;;;;;;;2.60;2.23;;;8.30;99.90;;;;;;5095237;28;20165;-56
2024/03/22 04:16:11;;;;;;;5.43;3.10;;;8.40;99.90;;;;;;5095342;28;20169;-56
2024/03/22 04:18:37;;;;;;;3.37;2.87;;;8.50;99.90;;;;;;5094867;28;20554;-56
2024/03/22 04:21:02;;;;;;;4.60;2.70;;;8.40;99.90;;;;;;5095092;28;20197;-56
2024/03/22 04:23:28;;;;;;;5.23;3.20;;;8.40;99.90;;;;;;5094816;28;20712;-56
2024/03/22 04:26:01;;;;;;;2.70;2.50;;;8.30;99.90;;;;;;5095068;28;20169;-56
2024/03/22 04:28:29;;;;;;;2.90;2.70;;;8.30;99.90;;;;;;5094787;28;20172;-55
2024/03/22 04:31:04;;;;;;;2.88;2.67;;;8.30;99.90;;;;;;5076813;28;20200;-56
2024/03/22 04:33:31;;;;;;;2.25;2.03;;;8.30;99.90;;;;;;5094887;28;20168;-56
2024/03/22 04:35:58;;;;;;;2.58;2.38;;;8.40;99.90;;;;;;5094657;28;20191;-56
2024/03/22 04:38:25;;;;;;;2.97;2.78;;;8.50;99.90;;;;;;5094647;28;20180;-56
2024/03/22 04:40:50;;;;;;;2.60;2.40;;;8.50;99.90;;;;;;5076330;28;20250;-56
2024/03/22 04:43:16;;;;;;;4.57;3.57;;;8.50;99.90;;;;;;5094571;28;20200;-56
2024/03/22 04:45:43;;;;;;;2.70;2.50;;;8.50;99.90;;;;;;5094706;28;20646;-56
2024/03/22 04:48:09;;;;;;;11.73;3.05;;;8.60;99.90;;;;;;5094429;28;20228;-56
2024/03/22 04:50:35;;;;;;;2.97;2.60;;;8.60;99.90;;;;;;5094017;28;20204;-56
2024/03/22 04:53:02;;;;;;;2.90;2.70;;;8.60;99.90;;;;;;5094225;28;20173;-56
2024/03/22 04:55:27;;;;;;;2.95;2.60;;;8.60;99.90;;;;;;5076202;28;20443;-55
2024/03/22 04:57:53;;;;;;;3.83;3.50;;;8.60;99.90;;;;;;5076216;28;20273;-56
2024/03/22 05:00:19;;;;;;;3.50;3.20;;;8.60;99.90;;;;;;5094074;28;20453;-56
2024/03/22 05:02:44;;;;;;;3.40;2.93;;;8.60;99.90;;;;;;5094292;28;20196;-57
2024/03/22 05:05:12;;;;;;;5.03;3.10;;;8.60;99.90;;;;;;5094234;28;20177;-57
2024/03/22 05:07:38;;;;;;;7.38;2.75;;;8.70;99.90;;;;;;5094500;28;20180;-55
2024/03/22 05:10:05;;;;;;;2.80;2.60;;;8.80;99.90;;;;;;5094015;28;20682;-57
2024/03/22 05:12:31;;;;;;;3.35;3.05;;;8.80;99.90;;;;;;5094272;28;20700;-57
2024/03/22 05:14:56;;;;;;;2.87;2.63;;;8.80;99.90;;;;;;5094085;28;20173;-57
2024/03/22 05:17:22;;;;;;;8.00;3.40;;;8.90;99.90;;;;;;5094088;28;20544;-57
2024/03/22 05:19:47;;;;;;;2.43;2.23;;;8.80;99.90;;;;;;5093612;28;20176;-57
2024/03/22 05:22:13;;;;;;;3.53;3.27;;;8.90;99.90;;;;;;5093887;28;20257;-57
2024/03/22 05:24:39;;;;;;;2.77;2.57;;;8.90;99.90;;;;;;5093925;28;20238;-57
2024/03/22 05:27:04;;;;;;;6.83;3.30;;;9.00;99.90;;;;;;5075788;28;20195;-57
2024/03/22 05:29:30;;;;;;;3.40;3.13;;;9.00;99.90;;;;;;5093613;28;20165;-57
2024/03/22 05:31:57;;;;;;;2.03;1.93;;;8.90;99.90;;;;;;5093695;28;20196;-57
2024/03/22 05:34:22;;;;;;;3.22;3.03;;;8.80;99.90;;;;;;5093523;28;20191;-57
2024/03/22 05:36:48;;;;;;;4.83;3.00;;;8.90;99.90;;;;;;5093767;28;20177;-57
2024/03/22 05:39:14;;;;;;;3.83;2.95;;;8.90;99.90;;;;;;5093456;28;20317;-57
2024/03/22 05:41:40;;;;;;;3.58;2.70;;;8.90;99.90;;;;;;5093594;28;20281;-55
2024/03/22 05:44:06;;;;;;;2.90;2.70;;;8.90;99.90;;;;;;5093413;28;20241;-57
2024/03/22 05:46:32;;;;;;;2.93;2.60;;;8.90;99.90;;;;;;5093530;28;20398;-57
2024/03/22 05:48:58;;;;;;;3.93;3.17;;;8.90;99.90;;;;;;5093091;28;20187;-56
2024/03/22 05:51:24;;;;;;;2.88;2.45;;;8.90;99.90;;;;;;5110175;23;20247;-63
2024/03/22 05:53:50;;;;;;;2.53;2.33;;;9.00;99.90;;;;;;5113738;28;20171;-63
2024/03/22 05:56:16;;;;;;;3.30;2.00;;;9.00;99.90;;;;;;5113385;28;20641;-63
2024/03/22 05:58:42;;;;;;;3.15;2.70;;;9.00;99.90;;;;;;5113383;28;20649;-63
2024/03/22 06:01:08;;;;;;;4.83;2.50;;;9.10;99.90;;;;;;5113398;28;20202;-63
2024/03/22 06:03:33;;;;;;;3.20;2.90;;;9.10;99.90;;;;;;5112630;28;20237;-63
2024/03/22 06:06:00;;;;;;;5.53;4.70;;;9.20;99.90;;;;;;5113525;28;20175;-63
2024/03/22 06:08:27;;;;;;;9.73;7.65;;;9.30;99.90;;;;;;5113318;28;20645;-63
2024/03/22 06:10:58;;;;;;;9.60;8.23;;;9.40;99.90;;;;;;5113063;28;20195;-63
2024/03/22 06:13:24;;;;;;;6.40;5.20;;;9.40;99.90;;;;;;5113296;28;20173;-63
2024/03/22 06:15:50;;;;;;;5.70;3.03;;;9.50;99.90;;;;;;5113252;28;20172;-63
2024/03/22 06:18:15;;;;;;;5.40;3.07;;;9.70;99.90;;;;;;5113309;28;20202;-63
2024/03/22 06:20:41;;;;;;;3.03;2.73;;;9.80;99.90;;;;;;5112985;28;20865;-63
2024/03/22 06:23:10;;;;;;;2.50;2.27;;;9.90;99.90;;;;;;5113055;28;20552;-63
2024/03/22 06:25:36;;;;;;;3.65;3.08;;;10.00;99.90;;;;;;5113063;28;20173;-62
2024/03/22 06:28:01;;;;;;;3.33;3.03;;;10.00;99.90;;;;;;5112935;28;20182;-63
2024/03/22 06:30:27;;;;;;;2.77;2.57;;;10.00;99.90;;;;;;5112803;28;20410;-63
2024/03/22 06:32:54;;;;;;;3.07;2.77;;;10.20;99.90;;;;;;5113018;28;20201;-63
2024/03/22 06:35:20;;;;;;;3.40;2.17;;;10.30;99.90;;;;;;5112937;28;20169;-63
2024/03/22 06:37:46;;;;;;;3.50;3.13;;;10.40;99.90;;;;;;5112851;28;20175;-63
2024/03/22 06:40:12;;;;;;;10.20;5.17;;;10.60;99.90;;;;;;5112368;28;20425;-63
2024/03/22 06:42:37;;;;;;;5.80;4.07;;;10.60;99.90;;;;;;5112745;28;20203;-63
2024/03/22 06:45:03;;;;;;;6.37;4.50;;;10.70;99.90;;;;;;5112740;28;20249;-63
2024/03/22 06:47:29;;;;;;;3.13;2.93;;;10.80;99.90;;;;;;5112679;28;20168;-63
2024/03/22 06:49:55;;;;;;;4.77;3.70;;;11.00;99.90;;;;;;5112447;28;20804;-63
2024/03/22 06:52:22;;;;;;;3.77;2.90;;;11.40;99.90;;;;;;5101878;28;20306;-63
2024/03/22 06:54:47;;;;;;;3.60;2.67;;;11.70;99.90;;;;;;5092163;28;20436;-63
2024/03/22 06:57:13;;;;;;;5.90;3.00;;;12.10;99.60;;;;;;5092186;28;20183;-63
2024/03/22 06:59:38;;;;;;;5.70;3.20;;;12.30;98.90;;;;;;5091867;28;20180;-63
2024/03/22 07:02:04;;;;;;;6.63;2.60;;;12.50;97.90;;;;;;5092007;28;20199;-63
2024/03/22 07:04:30;;;;;;;3.93;3.03;;;12.80;97.70;;;;;;5092109;28;20165;-63
2024/03/22 07:06:55;;;;;;;2.97;2.77;;;13.00;97.40;;;;;;5092067;28;20226;-63
2024/03/22 07:09:21;;;;;;;5.53;3.03;;;13.20;96.80;;;;;;5091776;28;20165;-63
2024/03/22 07:11:47;;;;;;;3.60;3.30;;;13.10;95.70;;;;;;5091930;28;20539;-63
2024/03/22 07:14:12;;;;;;;2.87;2.63;;;13.10;95.80;;;;;;5091857;28;20177;-63
2024/03/22 07:16:38;;;;;;;6.63;2.90;;;13.30;96.00;;;;;;5092044;28;20174;-63
2024/03/22 07:19:04;;;;;;;5.90;4.27;;;13.60;96.00;;;;;;5091850;28;20179;-63
2024/03/22 07:21:30;;;;;;;5.40;3.57;;;14.00;95.50;;;;;;5092001;28;20959;-63
2024/03/22 07:23:56;;;;;;;3.40;2.83;;;14.40;95.10;;;;;;5091826;28;20214;-63
2024/03/22 07:26:22;;;;;;;3.40;3.10;;;14.60;93.90;;;;;;5091907;28;20415;-63
2024/03/22 07:28:47;;;;;;;3.60;3.33;;;14.60;93.70;;;;;;5091520;28;20179;-63
2024/03/22 07:31:13;;;;;;;5.53;3.60;;;14.70;93.70;;;;;;5091826;28;20238;-63
2024/03/22 07:33:39;;;;;;;4.87;2.70;;;14.70;93.30;;;;;;5091808;28;20188;-63
2024/03/22 07:36:06;;;;;;;2.73;2.53;;;14.80;93.10;;;;;;5091782;28;20181;-63
2024/03/22 07:38:32;;;;;;;3.40;3.10;;;15.00;92.60;;;;;;5091374;28;20410;-64
2024/03/22 07:40:58;;;;;;;3.63;3.20;;;15.60;92.70;;;;;;5091574;28;20449;-64
2024/03/22 07:43:23;;;;;;;3.13;2.93;;;16.60;92.00;;;;;;5091600;28;20458;-64
2024/03/22 07:45:49;;;;;;;3.63;2.17;;;17.50;88.90;;;;;;5091696;28;20174;-64
2024/03/22 07:48:15;;;;;;;3.63;2.30;;;18.90;86.20;;;;;;5091542;28;20171;-64
2024/03/22 07:50:41;;;;;;;2.40;2.20;;;21.10;77.40;;;;;;5091421;28;20212;-64
2024/03/22 07:53:07;;;;;;;3.50;3.20;;;23.30;67.10;;;;;;5091587;28;20759;-64
2024/03/22 07:55:33;;;;;;;3.70;3.00;;;25.20;58.90;;;;;;5091575;28;20177;-64
2024/03/22 07:57:58;;;;;;;3.37;3.07;;;25.70;54.90;;;;;;5091581;28;20181;-64
2024/03/22 08:00:27;;;;;;;3.93;3.23;;;25.60;52.80;;;;;;5091237;28;20554;-64
2024/03/22 08:02:53;;;;;;;5.73;4.53;;;25.30;53.80;;;;;;5091515;28;20279;-64
2024/03/22 08:05:19;;;;;;;8.40;3.87;;;25.30;52.70;;;;;;5091595;28;20494;-64
2024/03/22 08:07:45;;;;;;;4.63;3.63;;;25.10;52.20;;;;;;5091493;28;20200;-64
2024/03/22 08:10:10;;;;;;;8.10;6.10;;;25.60;51.90;;;;;;5091094;28;20825;-65
2024/03/22 08:12:36;;;;;;;8.80;5.07;;;26.70;50.40;;;;;;5091431;28;20183;-64
2024/03/22 08:15:02;;;;;;;4.27;3.87;;;27.80;46.60;;;;;;5091450;28;20181;-62
2024/03/22 08:17:28;;;;;;;4.30;3.90;;;28.80;43.70;;;;;;5091362;28;20173;-62
2024/03/22 08:19:54;;;;;;;4.90;4.20;;;29.40;43.00;;;;;;5091139;28;20787;-62
2024/03/22 08:22:19;;;;;;;10.07;5.43;;;30.20;42.40;;;;;;5091216;28;20204;-61
2024/03/22 08:24:45;;;;;;;7.70;5.10;;;30.90;40.10;;;;;;5091286;28;20559;-62
2024/03/22 08:27:11;;;;;;;7.80;6.27;;;30.60;38.90;;;;;;5093463;28;20828;-61
2024/03/22 08:29:37;;;;;;;8.50;3.73;;;30.60;39.80;;;;;;5094763;28;20180;-62
2024/03/22 08:32:05;;;;;;;8.30;4.87;;;31.00;38.60;;;;;;5094966;28;20314;-62
2024/03/22 08:34:34;;;;;;;6.00;4.40;;;31.00;37.40;;;;;;5094922;28;20483;-62
2024/03/22 08:37:00;;;;;;;4.90;2.87;;;31.10;37.30;;;;;;5094850;28;20402;-61
2024/03/22 08:39:25;;;;;;;2.83;2.63;;;31.00;36.80;;;;;;5094412;28;20497;-61
2024/03/22 08:41:51;;;;;;;3.97;2.43;;;30.80;36.70;;;;;;5094743;28;20204;-61
2024/03/22 08:44:17;;;;;;;4.03;3.70;;;30.60;35.30;;;;;;5094820;28;20678;-61
2024/03/22 08:46:43;;;;;;;3.07;2.70;;;30.50;35.50;;;;;;5094859;28;20493;-61
2024/03/22 08:49:09;;;;;;;2.50;2.30;;;30.00;35.00;;;;;;5094385;28;20506;-62
2024/03/22 08:51:34;;;;;;;2.77;2.50;;;29.10;35.30;;;;;;5094430;28;20200;-61
2024/03/22 08:54:00;;;;;;;3.53;3.20;;;29.10;35.10;;;;;;5094449;28;20173;-62
2024/03/22 08:56:26;;;;;;;2.70;2.50;;;28.90;35.00;;;;;;5094448;28;20642;-62
2024/03/22 08:58:52;;;;;;;2.93;2.67;;;27.90;34.90;;;;;;5094235;28;20415;-61
2024/03/22 09:01:18;;;;;;;2.87;2.03;;;28.20;34.60;;;;;;5094444;28;20800;-62
2024/03/22 09:03:46;;;;;;;5.83;1.90;;;28.80;33.80;;;;;;5094335;28;20624;-62
2024/03/22 09:06:12;;;;;;;3.00;1.90;;;28.70;32.40;;;;;;5094328;28;20251;-61
2024/03/22 09:08:38;;;;;;;1.43;1.23;;;29.00;33.30;;;;;;5093946;28;20406;-61
2024/03/22 09:11:03;;;;;;;2.80;2.60;;;29.90;33.70;;;;;;5094234;28;20427;-61
2024/03/22 09:13:29;;;;;;;4.50;2.23;;;30.00;32.70;;;;;;5094174;28;20173;-61
2024/03/22 09:16:02;;;;;;;2.00;1.70;;;29.50;32.20;;;;;;5094254;28;20533;-62
2024/03/22 09:18:28;;;;;;;3.10;1.83;;;30.40;31.10;;;;;;5093946;28;20821;-61
2024/03/22 09:20:54;;;;;;;3.30;2.30;;;30.10;29.20;;;;;;5093723;28;20435;-62
2024/03/22 09:23:20;;;;;;;2.63;2.43;;;28.90;29.60;;;;;;5093856;28;20203;-61
2024/03/22 09:25:48;;;;;;;1.47;1.40;;;28.40;30.90;;;;;;5093915;28;20403;-62
2024/03/22 09:28:14;;;;;;;2.27;2.07;;;28.60;31.90;;;;;;5093915;28;20414;-61
2024/03/22 09:30:41;;;;;;;1.27;1.17;;;28.90;31.00;;;;;;5093733;28;20423;-64
2024/03/22 09:33:09;;;;;;;2.13;1.93;;;29.30;31.30;;;;;;5093836;28;20216;-63
2024/03/22 09:35:35;;;;;;;1.57;1.47;;;30.00;30.70;;;;;;5093733;28;20414;-64
2024/03/22 09:38:02;;;;;;;5.20;1.67;;;29.40;28.80;;;;;;5092368;28;20407;-64
2024/03/22 09:40:28;;;;;;;1.60;1.50;;;29.00;29.30;;;;;;5093547;28;20407;-64
2024/03/22 09:42:59;;;;;;;5.90;2.03;;;29.20;29.30;;;;;;5093593;28;20501;-64
2024/03/22 09:45:26;;;;;;;1.57;1.47;;;29.70;29.20;;;;;;5093630;28;20395;-64
2024/03/22 09:47:55;;;;;;;2.10;1.50;;;29.40;29.30;;;;;;5093504;28;20410;-62
2024/03/22 09:50:21;;;;;;;2.20;1.63;;;28.80;31.20;;;;;;5092803;28;20932;-61
2024/03/22 09:52:48;;;;;;;2.13;1.80;;;29.30;31.20;;;;;;5093466;28;20506;-64
2024/03/22 09:55:14;;;;;;;1.73;1.60;;;29.40;31.00;;;;;;5093344;28;20184;-64
2024/03/22 09:57:42;;;;;;;2.30;1.57;;;28.30;30.60;;;;;;5093328;28;20410;-64
2024/03/22 10:00:08;;;;;;;1.67;1.57;;;27.90;31.20;;;;;;5093131;28;20176;-64
2024/03/22 10:02:34;;;;;;;1.37;1.27;;;27.80;31.20;;;;;;5093038;28;20542;-64
2024/03/22 10:05:02;;;;;;;2.17;1.70;;;27.50;31.70;;;;;;5093027;28;20573;-64
2024/03/22 10:07:28;;;;;;;3.67;1.93;;;27.00;33.30;;;;;;5093158;28;20406;-64
2024/03/22 10:09:53;;;;;;;4.07;1.93;;;26.20;33.50;;;;;;5092885;28;20407;-64
2024/03/22 10:12:20;;;;;;;1.63;1.53;;;26.40;33.90;;;;;;5092983;28;21003;-63
2024/03/22 10:14:46;;;;;;;3.03;1.70;;;27.00;34.20;;;;;;5092943;28;20180;-64
2024/03/22 10:17:11;;;;;;;1.73;1.63;;;27.20;33.50;;;;;;5092890;28;20422;-64
2024/03/22 10:19:37;;;;;;;1.97;1.67;;;27.00;35.20;;;;;;5092575;28;20173;-64
2024/03/22 10:22:04;;;;;;;2.30;2.10;;;26.10;35.00;;;;;;5092758;28;20193;-64
2024/03/22 10:24:30;;;;;;;2.43;1.70;;;25.50;36.30;;;;;;5092750;28;20201;-64
2024/03/22 10:26:56;;;;;;;1.70;1.60;;;25.70;35.80;;;;;;5092788;28;20407;-64
2024/03/22 10:29:22;;;;;;;3.67;3.33;;;25.90;36.70;;;;;;5092461;28;20907;-64
2024/03/22 10:31:51;;;;;;;2.17;1.90;;;26.00;37.30;;;;;;5092548;28;20431;-64
2024/03/22 10:34:17;;;;;;;2.80;2.20;;;25.60;36.10;;;;;;5092585;28;20464;-64
2024/03/22 10:36:44;;;;;;;1.90;1.70;;;25.30;37.60;;;;;;5092635;28;20819;-64
2024/03/22 10:39:12;;;;;;;2.80;1.83;;;24.60;37.70;;;;;;5092494;28;20386;-64
2024/03/22 10:41:38;;;;;;;2.60;1.90;;;24.20;39.80;;;;;;5092506;28;20408;-63
2024/03/22 10:44:04;;;;;;;1.60;1.37;;;23.80;40.80;;;;;;5092412;28;20947;-64
2024/03/22 10:46:30;;;;;;;1.63;1.27;;;23.90;38.60;;;;;;5092407;28;20169;-64
2024/03/22 10:48:57;;;;;;;3.20;1.70;;;23.90;37.60;;;;;;5091751;28;20403;-64
2024/03/22 10:51:25;;;;;;;1.47;1.37;;;23.70;38.90;;;;;;5092385;28;20775;-64
2024/03/22 10:53:54;;;;;;;2.70;1.50;;;23.30;39.60;;;;;;5092239;28;21115;-64
2024/03/22 10:56:22;;;;;;;1.80;1.70;;;23.20;39.40;;;;;;5092302;28;20407;-63
2024/03/22 10:58:52;;;;;;;1.80;1.70;;;23.20;39.10;;;;;;5091865;28;20468;-64
2024/03/22 11:01:25;;;;;;;2.60;1.87;;;22.70;38.90;;;;;;5092021;28;20960;-63
2024/03/22 11:03:51;;;;;;;2.40;1.90;;;22.20;40.70;;;;;;5092055;28;20462;-64
2024/03/22 11:06:21;;;;;;;4.07;1.73;;;22.00;41.00;;;;;;5092098;28;20482;-63
2024/03/22 11:08:51;;;;;;;1.73;1.63;;;21.70;42.30;;;;;;5091869;28;20414;-64
2024/03/22 11:11:22;;;;;;;1.57;1.47;;;21.60;41.90;;;;;;5091917;28;20434;-64
2024/03/22 11:13:48;;;;;;;1.83;1.30;;;21.70;41.10;;;;;;5091966;28;20421;-63
2024/03/22 11:16:15;;;;;;;3.27;2.17;;;21.80;41.50;;;;;;5092193;28;20795;-63
2024/03/22 11:18:41;;;;;;;1.70;1.60;;;21.30;42.80;;;;;;5091747;28;20507;-64
2024/03/22 11:21:08;;;;;;;1.70;1.60;;;20.70;42.90;;;;;;5091811;28;20558;-63
2024/03/22 11:23:37;;;;;;;1.53;1.43;;;20.70;42.90;;;;;;5091862;28;20206;-63
2024/03/22 11:26:03;;;;;;;1.90;1.80;;;20.80;42.50;;;;;;5091723;28;20482;-64
2024/03/22 11:28:30;;;;;;;2.20;1.87;;;20.80;42.40;;;;;;5091871;28;20472;-63
2024/03/22 11:30:56;;;;;;;1.70;1.60;;;20.70;42.10;;;;;;5091689;28;20521;-63
2024/03/22 11:33:22;;;;;;;1.83;1.70;;;20.50;43.10;;;;;;5091709;28;21123;-63
2024/03/22 11:35:49;;;;;;;1.30;1.20;;;20.00;43.10;;;;;;5091620;28;20414;-64
2024/03/22 11:38:15;;;;;;;3.43;1.50;;;19.60;42.30;;;;;;5091607;28;20204;-64
2024/03/22 11:40:41;;;;;;;1.40;1.30;;;19.70;43.90;;;;;;5092519;28;20462;-64
2024/03/22 11:43:07;;;;;;;1.10;1.03;;;19.50;42.20;;;;;;5091473;28;20544;-62
2024/03/22 11:45:34;;;;;;;1.50;1.00;;;19.40;42.60;;;;;;5091662;28;20494;-63
2024/03/22 11:48:03;;;;;;;2.40;1.50;;;19.60;42.70;;;;;;5091598;28;20178;-63
2024/03/22 11:50:28;;;;;;;0.97;0.90;;;19.70;49.20;;;;;;5091205;28;20972;-63
2024/03/22 11:52:54;;;;;;;1.47;1.20;;;19.80;41.50;;;;;;5141243;22;20502;-63
2024/03/22 11:55:20;;;;;;;1.20;1.13;;;19.80;41.70;;;;;;5091220;28;20161;-63
2024/03/22 11:57:49;;;;;;;1.10;1.00;;;19.70;39.80;;;;;;5091354;28;20176;-63
2024/03/22 12:00:17;;;;;;;1.40;1.27;;;19.60;39.70;;;;;;5091220;28;20172;-63
2024/03/22 12:02:43;;;;;;;1.10;1.10;;;19.40;40.10;;;;;;5094383;28;20546;-63
2024/03/22 12:05:09;;;;;;;1.37;1.00;;;19.30;39.70;;;;;;5095254;28;20460;-63
2024/03/22 12:07:35;;;;;;;1.73;0.90;;;19.00;38.80;;;;;;5095182;28;20172;-63
2024/03/22 12:10:01;;;;;;;1.00;1.00;;;18.80;39.60;;;;;;5094851;28;20413;-63
2024/03/22 12:12:26;;;;;;;1.80;1.70;;;18.60;38.90;;;;;;5095196;28;20200;-63
2024/03/22 12:14:52;;;;;;;0.90;0.90;;;18.70;39.80;;;;;;5095309;28;20287;-63
2024/03/22 12:17:18;;;;;;;0.70;0.70;;;18.80;39.90;;;;;;5095199;28;20658;-63
2024/03/22 12:19:44;;;;;;;2.20;1.37;;;18.80;39.80;;;;;;5095295;28;20168;-63
2024/03/22 12:22:10;;;;;;;2.70;1.10;;;18.80;39.30;;;;;;5094989;28;20191;-63
2024/03/22 12:24:36;;;;;;;1.23;1.23;;;19.00;39.00;;;;;;5095020;28;20474;-63
2024/03/22 12:27:03;;;;;;;0.90;0.70;;;18.90;39.50;;;;;;5095017;28;20935;-63
2024/03/22 12:29:28;;;;;;;0.90;0.90;;;18.70;39.30;;;;;;5094775;28;20956;-62
2024/03/22 12:31:54;;;;;;;1.00;1.00;;;18.20;38.20;;;;;;5094801;28;20455;-63
2024/03/22 12:34:20;;;;;;;1.47;0.87;;;18.40;39.40;;;;;;5095001;28;20177;-63
2024/03/22 12:36:45;;;;;;;1.33;1.20;;;18.60;39.30;;;;;;5094953;28;20209;-63
2024/03/22 12:39:11;;;;;;;1.07;1.00;;;18.70;38.10;;;;;;5094408;28;20181;-63
2024/03/22 12:41:37;;;;;;;2.30;2.00;;;18.70;38.40;;;;;;5094647;28;20196;-63
2024/03/22 12:44:03;;;;;;;1.30;1.20;;;18.60;37.90;;;;;;5094644;28;20282;-63
2024/03/22 12:46:29;;;;;;;1.13;0.80;;;18.50;37.80;;;;;;5094538;28;20446;-63